Time;durP1;ratioP1;P1;durP2;ratioP2;P2;SDS_P1;SDS_P2;PMS_P1;PMS_P2;Temp;Humidity;BMP_temperature;BMP_pressure;BME280_temperature;BME280_humidity;BME280_pressure;Samples;Min_cycle;Max_cycle;Signal;HPM_P1;HPM_P2
2023/01/30 00:02:55;;;;;;;19.85;11.50;;;;;;;-0.93;74.16;100054.00;1730195;83;21758;-80
2023/01/30 00:06:03;;;;;;;22.82;11.38;;;;;;;-0.98;74.11;100049.45;1729638;83;21204;-79
2023/01/30 00:09:09;;;;;;;19.05;12.30;;;;;;;-1.01;73.93;100047.45;1729425;83;21228;-80
2023/01/30 00:12:15;;;;;;;17.50;10.53;;;;;;;-0.89;73.32;100046.11;1730325;83;21188;-79
2023/01/30 00:15:13;;;;;;;23.12;11.90;;;;;;;-1.06;74.28;100052.67;1730268;83;21574;-79
2023/01/30 00:18:06;;;;;;;19.52;11.78;;;;;;;-1.04;74.52;100050.72;1730086;83;21197;-79
2023/01/30 00:21:14;;;;;;;21.23;11.85;;;;;;;-1.11;74.79;100050.80;1728722;83;21184;-79
2023/01/30 00:24:21;;;;;;;19.42;10.98;;;;;;;-0.99;74.30;100051.73;1730477;83;21197;-79
2023/01/30 00:27:27;;;;;;;20.17;11.50;;;;;;;-1.00;74.22;100049.17;1728902;83;21196;-79
2023/01/30 00:30:33;;;;;;;18.45;11.22;;;;;;;-1.05;74.49;100044.13;1730087;83;21746;-79
2023/01/30 00:33:38;;;;;;;20.25;12.18;;;;;;;-0.96;74.26;100051.53;1730114;83;21192;-79
2023/01/30 00:36:46;;;;;;;24.02;13.35;;;;;;;-1.08;74.66;100039.00;1729377;83;21208;-79
2023/01/30 00:39:54;;;;;;;18.40;10.85;;;;;;;-0.92;74.56;100040.09;1728410;83;21247;-79
2023/01/30 00:49:44;;;;;;;22.93;12.73;;;;;;;-0.37;73.14;100043.66;1731142;83;21149;-80
2023/01/30 00:52:48;;;;;;;24.47;13.10;;;;;;;-0.56;73.24;100044.64;1730402;83;21232;-80
2023/01/30 00:55:53;;;;;;;18.87;12.23;;;;;;;-0.78;73.64;100043.98;1730157;83;21809;-80
2023/01/30 00:58:59;;;;;;;22.25;12.63;;;;;;;-0.92;74.38;100046.31;1730286;83;21184;-80
2023/01/30 01:01:59;;;;;;;19.37;12.25;;;;;;;-0.88;74.38;100053.68;1730807;83;21193;-80
2023/01/30 01:05:05;;;;;;;23.55;13.95;;;;;;;-0.66;73.78;100048.94;1730168;83;21204;-80
2023/01/30 01:08:10;;;;;;;23.87;14.60;;;;;;;-0.61;73.80;100045.43;1728964;83;21165;-80
2023/01/30 01:11:23;;;;;;;23.90;14.95;;;;;;;-0.91;74.36;100050.71;1728612;82;21734;-80
2023/01/30 01:14:25;;;;;;;26.95;16.12;;;;;;;-1.02;74.93;100060.52;1730081;83;21246;-80
2023/01/30 01:17:32;;;;;;;29.50;19.02;;;;;;;-0.88;74.81;100063.08;1729415;83;21232;-80
2023/01/30 01:20:37;;;;;;;26.65;17.48;;;;;;;-0.80;74.72;100059.33;1730133;83;21770;-79
2023/01/30 01:23:35;;;;;;;28.40;16.67;;;;;;;-0.88;74.96;100057.70;1729614;83;21394;-79
2023/01/30 01:26:28;;;;;;;24.65;15.45;;;;;;;-0.81;75.26;100049.56;1728749;83;21247;-80
2023/01/30 01:29:33;;;;;;;27.75;16.45;;;;;;;-0.31;73.67;100050.41;1730138;83;21229;-79
2023/01/30 01:32:39;;;;;;;30.17;17.23;;;;;;;-0.24;73.32;100046.27;1730188;83;21220;-79
2023/01/30 01:35:49;;;;;;;26.65;17.25;;;;;;;-0.37;73.13;100040.97;1730287;83;21196;-80
2023/01/30 01:38:55;;;;;;;25.68;16.75;;;;;;;-0.30;73.16;100036.84;1729623;83;21208;-80
2023/01/30 01:42:01;;;;;;;30.65;17.87;;;;;;;-0.16;72.76;100033.62;1730107;83;21208;-80
2023/01/30 01:45:25;;;;;;;30.45;18.57;;;;;;;0.12;71.82;100022.98;1730344;83;21775;-79
2023/01/30 01:48:42;;;;;;;29.72;16.90;;;;;;;-0.12;72.22;100032.42;1728897;81;21203;-79
2023/01/30 01:52:10;;;;;;;34.13;20.00;;;;;;;-0.09;72.18;100028.17;1730707;83;21189;-79
2023/01/30 01:55:17;;;;;;;33.23;19.67;;;;;;;-0.15;72.45;100028.61;1729234;83;21200;-80
2023/01/30 01:58:30;;;;;;;37.35;20.50;;;;;;;-0.33;72.92;100038.44;1729315;83;21227;-80
2023/01/30 02:01:36;;;;;;;30.75;18.75;;;;;;;-0.37;73.49;100038.77;1730206;83;21192;-79
2023/01/30 02:08:16;;;;;;;32.67;19.12;;;;;;;-0.38;73.71;100048.64;1719422;83;21192;-79
2023/01/30 02:11:35;;;;;;;29.92;17.75;;;;;;;-0.35;73.72;100041.70;1732510;82;21232;-79
2023/01/30 02:14:41;;;;;;;27.90;16.82;;;;;;;-0.36;73.45;100044.02;1736847;82;21849;-79
2023/01/30 02:17:47;;;;;;;26.23;15.60;;;;;;;-0.40;73.54;100037.64;1736109;82;21221;-79
2023/01/30 02:21:08;;;;;;;27.40;17.70;;;;;;;-0.70;74.62;100040.76;1736623;82;21205;-80
2023/01/30 02:24:43;;;;;;;26.60;16.48;;;;;;;-0.33;73.98;100049.64;1736467;82;21209;-79
2023/01/30 02:28:17;;;;;;;23.98;15.38;;;;;;;-0.27;73.28;100036.63;1735401;82;21205;-79
2023/01/30 02:31:45;;;;;;;23.32;15.60;;;;;;;-0.43;73.44;100036.52;1736661;82;21177;-79
2023/01/30 02:35:48;;;;;;;26.80;17.17;;;;;;;-0.78;74.42;100039.47;1736628;82;22463;-79
2023/01/30 02:38:57;;;;;;;25.20;15.70;;;;;;;-0.68;74.33;100029.41;1735388;82;21284;-79
2023/01/30 02:42:16;;;;;;;27.60;15.78;;;;;;;-0.68;74.43;100031.60;1736939;82;21215;-79
2023/01/30 02:45:39;;;;;;;24.98;14.80;;;;;;;-0.61;74.29;100027.97;1736372;82;21201;-79
2023/01/30 02:48:55;;;;;;;22.77;15.10;;;;;;;-0.37;73.26;100029.37;1732137;81;21320;-79
2023/01/30 02:52:02;;;;;;;25.15;16.30;;;;;;;-0.74;74.05;100028.03;1706228;82;21209;-81
2023/01/30 02:55:30;;;;;;;24.45;16.27;;;;;;;-0.84;74.48;100022.47;1736123;82;21232;-81
2023/01/30 02:58:44;;;;;;;20.57;13.28;;;;;;;-0.91;74.57;100018.49;1735060;82;21268;-80
2023/01/30 03:02:20;;;;;;;25.17;14.23;;;;;;;-0.92;74.48;100018.12;1736608;82;21185;-79
2023/01/30 03:05:58;;;;;;;24.80;15.00;;;;;;;-0.92;74.61;100022.64;1736399;82;21201;-79
2023/01/30 03:09:21;;;;;;;29.02;17.60;;;;;;;-0.95;74.68;100020.16;1735648;82;21201;-79
2023/01/30 03:12:57;;;;;;;27.73;17.27;;;;;;;-0.63;73.74;100024.55;1732314;82;21271;-79
2023/01/30 03:16:20;;;;;;;25.45;15.95;;;;;;;-0.53;73.06;100013.01;1730146;83;21173;-79
2023/01/30 03:19:26;;;;;;;22.37;15.10;;;;;;;-0.44;72.61;100011.48;1721383;82;21276;-79
2023/01/30 03:22:31;;;;;;;25.27;16.87;;;;;;;-0.43;72.40;100009.16;1730129;83;21240;-79
2023/01/30 03:25:38;;;;;;;27.77;17.95;;;;;;;-0.60;72.58;100006.39;1729594;83;21235;-79
2023/01/30 03:28:43;;;;;;;24.35;16.75;;;;;;;-0.57;73.04;100007.97;1729579;83;21315;-79
2023/01/30 03:31:49;;;;;;;30.30;16.10;;;;;;;-0.52;73.13;100009.38;1730293;83;21176;-79
2023/01/30 03:34:55;;;;;;;26.20;15.75;;;;;;;-0.50;72.87;100017.80;1728949;83;21254;-79
2023/01/30 03:38:01;;;;;;;27.75;17.15;;;;;;;-0.43;72.71;100014.53;1728785;82;21240;-79
2023/01/30 03:41:08;;;;;;;27.00;15.85;;;;;;;-0.19;72.58;100010.98;1729516;83;21220;-79
2023/01/30 03:44:14;;;;;;;28.50;17.32;;;;;;;-0.19;72.41;100010.50;1728782;83;21181;-79
2023/01/30 03:47:19;;;;;;;26.25;16.87;;;;;;;-0.21;72.35;100012.45;1730253;83;21180;-79
2023/01/30 03:50:27;;;;;;;28.83;16.82;;;;;;;-0.14;72.17;100011.04;1730502;83;21196;-79
2023/01/30 03:53:32;;;;;;;25.40;15.88;;;;;;;-0.02;71.54;100015.96;1728897;83;21577;-79
2023/01/30 03:56:38;;;;;;;26.33;15.93;;;;;;;-0.12;71.94;100021.66;1729484;83;21191;-79
2023/01/30 03:59:44;;;;;;;23.25;16.10;;;;;;;-0.08;72.00;100023.16;1729442;83;21232;-79
2023/01/30 04:02:53;;;;;;;30.27;17.02;;;;;;;-0.17;72.11;100022.02;1730464;83;21188;-79
2023/01/30 04:06:00;;;;;;;27.90;15.88;;;;;;;-0.21;72.14;100019.17;1730199;83;21200;-79
2023/01/30 04:09:07;;;;;;;33.05;16.85;;;;;;;-0.13;71.72;100018.61;1729875;83;21252;-79
2023/01/30 04:12:14;;;;;;;29.20;16.12;;;;;;;-0.10;71.52;100025.08;1729245;83;21235;-79
2023/01/30 04:15:21;;;;;;;25.95;16.15;;;;;;;-0.17;71.71;100023.84;1730391;83;21268;-79
2023/01/30 04:18:31;;;;;;;26.50;15.70;;;;;;;-0.15;71.86;100027.27;1730907;82;21173;-78
2023/01/30 04:21:38;;;;;;;25.15;15.60;;;;;;;-0.24;71.85;100026.60;1730236;83;21172;-79
2023/01/30 04:24:44;;;;;;;27.67;16.05;;;;;;;-0.39;72.36;100033.48;1730623;83;21235;-79
2023/01/30 04:27:50;;;;;;;23.70;15.20;;;;;;;-0.42;72.73;100042.29;1728968;83;21208;-79
2023/01/30 04:30:59;;;;;;;25.52;15.38;;;;;;;-0.46;72.83;100044.34;1728725;83;21244;-80
2023/01/30 04:34:11;;;;;;;31.00;15.95;;;;;;;-0.49;73.45;100047.23;1731802;82;21180;-80
2023/01/30 04:37:18;;;;;;;26.65;14.98;;;;;;;-0.64;73.95;100049.22;1730248;83;21193;-79
2023/01/30 04:40:24;;;;;;;24.65;14.55;;;;;;;-0.57;73.93;100048.27;1728828;83;21227;-80
2023/01/30 04:43:30;;;;;;;31.52;15.80;;;;;;;-0.39;73.49;100049.62;1730202;83;21496;-80
2023/01/30 04:46:47;;;;;;;28.47;15.60;;;;;;;-0.31;72.84;100048.57;1731211;83;21144;-80
2023/01/30 04:49:52;;;;;;;27.98;14.83;;;;;;;-0.48;73.43;100046.26;1730169;83;21208;-80
2023/01/30 04:52:58;;;;;;;25.17;14.38;;;;;;;-0.36;73.44;100042.68;1730167;83;21204;-80
2023/01/30 04:56:05;;;;;;;29.52;16.95;;;;;;;-0.32;73.19;100048.70;1730122;83;21311;-80
2023/01/30 04:59:13;;;;;;;25.95;15.53;;;;;;;-0.29;72.79;100044.41;1730039;83;22298;-80
2023/01/30 05:02:12;;;;;;;25.57;14.80;;;;;;;-0.17;72.39;100053.42;1730028;83;21204;-80
2023/01/30 05:05:06;;;;;;;27.20;15.63;;;;;;;-0.15;72.75;100049.63;1730097;83;21180;-80
2023/01/30 05:08:11;;;;;;;21.37;12.47;;;;;;;0.05;72.06;100046.81;1730198;83;21311;-79
2023/01/30 05:11:17;;;;;;;26.07;13.85;;;;;;;-0.22;72.84;100047.53;1729095;83;21204;-80
2023/01/30 05:14:23;;;;;;;34.45;16.45;;;;;;;-0.62;73.76;100047.75;1729800;83;21223;-80
2023/01/30 05:17:31;;;;;;;26.20;13.80;;;;;;;-0.68;74.23;100041.49;1730354;83;21211;-80
2023/01/30 05:20:36;;;;;;;30.62;15.20;;;;;;;-0.58;74.22;100045.22;1728920;83;21288;-80
2023/01/30 05:23:42;;;;;;;32.10;16.48;;;;;;;-0.51;73.96;100049.19;1728736;83;21743;-80
2023/01/30 05:26:48;;;;;;;27.32;14.47;;;;;;;-0.34;73.38;100043.41;1730089;83;21240;-80
2023/01/30 05:29:53;;;;;;;28.57;14.78;;;;;;;-0.13;73.06;100053.56;1728765;83;21200;-79
2023/01/30 05:33:00;;;;;;;25.52;14.33;;;;;;;0.03;72.31;100046.05;1728835;83;21199;-80
2023/01/30 05:36:06;;;;;;;25.30;14.20;;;;;;;-0.27;72.78;100051.41;1730174;83;21189;-80
2023/01/30 05:39:12;;;;;;;24.27;14.70;;;;;;;0.08;72.03;100043.87;1730165;83;21526;-79
2023/01/30 05:42:18;;;;;;;29.23;13.65;;;;;;;-0.19;73.20;100050.82;1730194;83;21224;-80
2023/01/30 05:45:24;;;;;;;27.95;15.28;;;;;;;-0.09;72.68;100049.67;1728776;82;21204;-80
2023/01/30 05:48:30;;;;;;;24.85;14.30;;;;;;;-0.27;72.97;100048.72;1722839;81;21235;-80
2023/01/30 05:51:36;;;;;;;26.50;14.75;;;;;;;-0.28;73.21;100049.70;1726287;81;21876;-80
2023/01/30 05:54:43;;;;;;;34.10;19.98;;;;;;;0.12;72.60;100054.77;1714375;81;21204;-81
2023/01/30 05:57:49;;;;;;;33.98;18.85;;;;;;;0.32;72.12;100057.77;1719131;83;21401;-79
2023/01/30 06:00:55;;;;;;;37.53;21.02;;;;;;;0.51;71.10;100065.66;1726014;81;21204;-80
2023/01/30 06:04:01;;;;;;;37.45;22.90;;;;;;;0.16;71.37;100068.36;1715451;82;21833;-81
2023/01/30 06:07:06;;;;;;;36.23;21.05;;;;;;;0.39;70.93;100064.41;1701676;83;21195;-81
2023/01/30 06:10:06;;;;;;;35.75;21.52;;;;;;;-0.01;71.18;100069.61;1726532;81;21231;-80
2023/01/30 06:13:00;;;;;;;40.92;23.18;;;;;;;-0.41;72.72;100070.38;1728933;81;21489;-79
2023/01/30 06:16:06;;;;;;;47.05;23.65;;;;;;;-0.01;71.46;100064.73;1710894;81;21541;-80
2023/01/30 06:19:11;;;;;;;37.80;22.55;;;;;;;-0.50;73.05;100051.39;1733656;81;21170;-80
2023/01/30 06:22:17;;;;;;;35.52;21.80;;;;;;;-0.47;73.27;100057.41;1722913;81;21227;-79
2023/01/30 06:25:16;;;;;;;36.03;20.97;;;;;;;-0.55;73.51;100053.92;1712580;82;21156;-80
2023/01/30 06:28:23;;;;;;;36.33;19.45;;;;;;;-0.65;73.68;100052.03;1713106;83;21288;-80
2023/01/30 06:31:29;;;;;;;41.25;20.50;;;;;;;-0.60;73.46;100052.55;1711606;83;21204;-80
2023/01/30 06:34:37;;;;;;;37.03;19.60;;;;;;;-0.75;73.97;100056.31;1730044;81;21193;-80
2023/01/30 06:37:43;;;;;;;35.45;20.08;;;;;;;-0.33;72.78;100050.53;1713653;82;21200;-80
2023/01/30 06:40:50;;;;;;;28.32;18.57;;;;;;;-0.66;73.80;100055.66;1699425;83;22351;-80
2023/01/30 06:43:56;;;;;;;34.40;19.80;;;;;;;-0.74;74.09;100056.72;1695040;83;22214;-80
2023/01/30 06:47:02;;;;;;;36.10;20.72;;;;;;;-0.39;73.50;100063.05;1739040;82;21222;-84
2023/01/30 06:50:09;;;;;;;34.48;18.77;;;;;;;-0.61;73.37;100055.72;1722203;83;21251;-81
2023/01/30 06:53:17;;;;;;;33.92;20.02;;;;;;;-0.59;73.21;100052.42;1714173;83;21239;-81
2023/01/30 06:56:16;;;;;;;32.73;18.37;;;;;;;-0.53;72.71;100056.48;1714906;81;21187;-81
2023/01/30 06:59:20;;;;;;;32.65;19.00;;;;;;;-0.45;72.37;100059.97;1698781;83;21216;-81
2023/01/30 07:02:25;;;;;;;31.87;18.30;;;;;;;-0.54;73.11;100047.57;1736313;81;21180;-82
2023/01/30 07:05:32;;;;;;;37.73;19.10;;;;;;;-0.23;72.35;100049.36;1727861;81;21230;-81
2023/01/30 07:08:40;;;;;;;38.55;21.23;;;;;;;-0.44;72.45;100045.06;1732861;82;21244;-81
2023/01/30 07:11:46;;;;;;;33.40;20.27;;;;;;;-0.19;71.76;100037.87;1722754;81;21450;-80
2023/01/30 07:14:52;;;;;;;44.08;22.48;;;;;;;-0.07;71.07;100038.31;1723200;81;21305;-80
2023/01/30 07:18:02;;;;;;;36.95;20.60;;;;;;;-0.26;71.73;100042.37;1711113;81;21207;-79
2023/01/30 07:21:08;;;;;;;30.95;18.73;;;;;;;-0.27;71.76;100039.31;1723191;82;21247;-79
2023/01/30 07:24:14;;;;;;;32.58;18.60;;;;;;;-0.28;72.12;100034.92;1720907;82;21214;-79
2023/01/30 07:27:19;;;;;;;31.77;18.98;;;;;;;0.02;71.47;100034.08;1726292;81;21195;-79
2023/01/30 07:30:24;;;;;;;36.17;19.67;;;;;;;0.13;70.81;100032.27;1744697;80;21207;-80
2023/01/30 07:33:30;;;;;;;32.93;18.27;;;;;;;0.18;70.32;100028.73;1718726;81;21286;-81
2023/01/30 07:36:37;;;;;;;33.65;19.30;;;;;;;0.33;69.81;100027.19;1743281;80;21242;-81
2023/01/30 07:39:43;;;;;;;29.27;17.98;;;;;;;-0.06;70.21;100033.30;1721791;83;21185;-81
2023/01/30 07:42:43;;;;;;;30.80;17.30;;;;;;;-0.17;70.45;100021.16;1740991;80;21191;-81
2023/01/30 07:45:40;;;;;;;31.05;19.00;;;;;;;-0.16;70.17;100022.38;1722034;83;21176;-81
2023/01/30 07:48:45;;;;;;;39.75;20.15;;;;;;;0.27;69.08;100029.02;1743462;80;21203;-81
2023/01/30 07:51:51;;;;;;;34.03;20.35;;;;;;;-0.11;69.11;100026.06;1736485;80;21805;-81
2023/01/30 07:54:58;;;;;;;32.30;20.00;;;;;;;0.38;67.01;100026.38;1742758;80;22316;-81
2023/01/30 07:58:02;;;;;;;34.55;19.30;;;;;;;0.23;67.29;100022.52;1727863;81;21187;-81
2023/01/30 08:01:08;;;;;;;34.98;19.17;;;;;;;0.13;67.38;100028.23;1727354;82;21244;-81
2023/01/30 08:04:13;;;;;;;32.45;19.60;;;;;;;0.12;67.37;100034.59;1736719;80;21248;-80
2023/01/30 08:07:23;;;;;;;37.30;18.42;;;;;;;0.24;67.14;100033.67;1716220;82;21219;-81
2023/01/30 08:10:29;;;;;;;30.72;19.25;;;;;;;0.19;67.20;100039.04;1744411;80;21735;-81
2023/01/30 08:13:35;;;;;;;32.95;18.45;;;;;;;0.33;66.82;100029.89;1713094;82;21172;-80
2023/01/30 08:16:41;;;;;;;33.35;19.60;;;;;;;0.24;66.74;100032.33;1744044;80;21180;-80
2023/01/30 08:19:47;;;;;;;32.50;17.55;;;;;;;0.45;66.61;100028.45;1744378;82;21793;-80
2023/01/30 08:22:54;;;;;;;29.87;17.27;;;;;;;0.47;66.81;100025.64;1714998;83;21882;-80
2023/01/30 08:26:07;;;;;;;31.00;16.90;;;;;;;0.63;66.19;100023.48;1727817;81;21227;-80
2023/01/30 08:29:13;;;;;;;30.92;16.80;;;;;;;0.80;66.36;100018.59;1725513;81;21227;-80
2023/01/30 08:32:18;;;;;;;24.63;14.40;;;;;;;0.86;65.54;100022.17;1743055;81;21191;-80
2023/01/30 08:35:25;;;;;;;30.15;18.02;;;;;;;0.93;65.10;100018.85;1723153;83;21181;-79
2023/01/30 08:38:30;;;;;;;28.95;17.00;;;;;;;0.85;65.54;100021.78;1730799;82;21208;-80
2023/01/30 08:41:36;;;;;;;27.45;14.93;;;;;;;0.94;65.21;100015.66;1722089;82;21208;-79
2023/01/30 08:44:41;;;;;;;24.05;14.40;;;;;;;1.01;64.45;100009.68;1724253;82;21228;-79
2023/01/30 08:47:47;;;;;;;24.95;15.80;;;;;;;1.09;63.76;100011.77;1725897;81;21238;-78
2023/01/30 08:50:54;;;;;;;30.88;14.53;;;;;;;0.65;65.35;100008.06;1747582;80;21165;-80
2023/01/30 08:53:59;;;;;;;30.75;16.05;;;;;;;0.76;65.27;100008.09;1721497;82;21116;-80
2023/01/30 08:57:05;;;;;;;25.75;13.78;;;;;;;0.81;64.94;100003.69;1731549;81;21164;-79
2023/01/30 09:00:12;;;;;;;29.77;13.50;;;;;;;0.72;65.60;99999.88;1730973;81;21239;-80
2023/01/30 09:03:18;;;;;;;25.55;13.72;;;;;;;1.06;64.99;99991.80;1744884;81;21180;-81
2023/01/30 09:06:23;;;;;;;21.37;11.48;;;;;;;1.15;65.26;99986.17;1742242;81;21176;-80
2023/01/30 09:09:29;;;;;;;17.90;10.18;;;;;;;1.19;65.16;99983.10;1731429;81;21240;-80
2023/01/30 09:12:35;;;;;;;11.68;7.08;;;;;;;1.01;65.71;99980.05;1731812;81;21176;-81
2023/01/30 09:15:41;;;;;;;12.37;7.10;;;;;;;0.91;66.13;99973.70;1728238;81;21572;-80
2023/01/30 09:18:48;;;;;;;13.78;8.15;;;;;;;1.18;65.70;99969.77;1738568;81;21184;-80
2023/01/30 09:21:55;;;;;;;18.32;9.70;;;;;;;1.30;65.40;99966.55;1745437;81;21256;-80
2023/01/30 09:25:01;;;;;;;16.12;9.98;;;;;;;1.53;64.95;99968.20;1747875;81;21261;-80
2023/01/30 09:28:06;;;;;;;20.97;11.85;;;;;;;1.69;64.93;99964.58;1743815;81;21193;-81
2023/01/30 09:31:35;;;;;;;27.42;12.82;;;;;;;1.83;64.21;99959.88;1740123;82;21340;-80
2023/01/30 09:34:52;;;;;;;19.85;11.97;;;;;;;2.41;62.43;99957.13;1739141;82;21125;-81
2023/01/30 09:37:48;;;;;;;28.40;13.93;;;;;;;2.42;61.69;99952.58;1739053;82;21170;-80
2023/01/30 09:40:34;;;;;;;24.07;15.28;;;;;;;2.26;61.92;99947.17;1724656;82;21189;-80
2023/01/30 09:44:23;;;;;;;23.52;12.68;;;;;;;2.47;60.96;99941.73;1728985;82;22522;-80
2023/01/30 09:47:15;;;;;;;20.70;11.88;;;;;;;2.67;60.24;99938.64;1744902;82;21201;-81
2023/01/30 09:50:32;;;;;;;23.10;12.30;;;;;;;2.67;60.30;99927.84;1739534;81;21230;-79
2023/01/30 09:53:51;;;;;;;20.95;11.88;;;;;;;2.46;60.15;99930.59;1742827;82;22870;-79
2023/01/30 09:57:17;;;;;;;17.82;10.70;;;;;;;2.32;59.92;99921.98;1752570;81;21168;-81
2023/01/30 10:00:42;;;;;;;29.15;14.50;;;;;;;2.69;58.69;99916.42;1715800;83;21171;-80
2023/01/30 10:04:06;;;;;;;17.67;11.12;;;;;;;2.86;57.58;99914.05;1717799;82;21220;-80
2023/01/30 10:07:38;;;;;;;20.85;11.35;;;;;;;2.72;57.11;99906.67;1711041;82;21190;-81
2023/01/30 10:11:05;;;;;;;22.62;11.68;;;;;;;1.89;59.62;99909.48;1750501;81;21148;-81
2023/01/30 10:14:49;;;;;;;18.32;11.88;;;;;;;1.78;60.21;99896.39;1717740;82;21190;-81
2023/01/30 10:18:26;;;;;;;17.73;10.53;;;;;;;1.69;60.63;99885.05;1724031;81;21183;-81
2023/01/30 10:21:41;;;;;;;19.15;10.75;;;;;;;2.23;59.49;99881.30;1726621;81;21885;-79
2023/01/30 10:25:06;;;;;;;18.90;13.08;;;;;;;2.12;59.55;99872.41;1713267;82;21227;-81
2023/01/30 10:28:23;;;;;;;21.97;12.53;;;;;;;2.13;59.57;99870.95;1727138;81;21201;-79
2023/01/30 10:31:29;;;;;;;16.48;9.88;;;;;;;2.07;59.34;99859.81;1725457;81;21227;-79
2023/01/30 10:34:47;;;;;;;16.15;9.48;;;;;;;1.84;59.74;99860.48;1727602;81;21302;-79
2023/01/30 10:38:12;;;;;;;14.18;8.83;;;;;;;1.69;59.99;99851.84;1725491;81;21219;-79
2023/01/30 10:41:41;;;;;;;15.15;8.18;;;;;;;1.53;59.99;99846.91;1714560;81;21192;-80
2023/01/30 10:44:47;;;;;;;18.95;9.45;;;;;;;1.37;59.52;99841.96;1725496;81;21279;-79
2023/01/30 10:48:23;;;;;;;16.85;10.68;;;;;;;1.45;59.48;99837.25;1733299;81;21183;-79
2023/01/30 10:51:38;;;;;;;19.55;10.08;;;;;;;1.35;60.04;99836.33;1732484;80;21263;-79
2023/01/30 10:54:56;;;;;;;16.15;9.85;;;;;;;1.42;59.31;99830.80;1725401;81;21248;-81
2023/01/30 10:58:09;;;;;;;15.05;9.63;;;;;;;1.78;58.52;99825.44;1711794;81;21746;-80
2023/01/30 11:01:34;;;;;;;16.20;9.00;;;;;;;2.03;57.78;99816.94;1734832;81;21194;-81
2023/01/30 11:04:53;;;;;;;14.70;9.53;;;;;;;2.07;57.68;99809.45;1722651;81;21825;-80
2023/01/30 11:08:01;;;;;;;16.23;9.20;;;;;;;1.95;57.95;99811.35;1731969;81;21176;-80
2023/01/30 11:11:09;;;;;;;15.40;9.43;;;;;;;1.94;58.06;99804.75;1713603;82;21193;-81
2023/01/30 11:14:20;;;;;;;17.00;9.63;;;;;;;1.89;58.20;99803.80;1731928;82;21200;-80
2023/01/30 11:17:26;;;;;;;17.42;9.83;;;;;;;1.97;57.98;99803.97;1714186;82;21267;-80
2023/01/30 11:20:32;;;;;;;16.65;9.53;;;;;;;1.95;57.99;99793.82;1714171;82;21204;-81
2023/01/30 11:23:51;;;;;;;13.32;8.20;;;;;;;1.89;57.72;99788.12;1721334;81;21302;-81
2023/01/30 11:26:57;;;;;;;13.83;7.25;;;;;;;1.88;57.40;99792.63;1736983;81;21256;-79
2023/01/30 11:30:26;;;;;;;12.07;6.97;;;;;;;2.08;56.06;99787.36;1721149;81;21254;-80
2023/01/30 11:33:43;;;;;;;12.58;7.50;;;;;;;2.30;55.65;99782.60;1719409;82;21176;-80
2023/01/30 11:36:49;;;;;;;11.45;7.12;;;;;;;2.35;54.95;99779.49;1740587;80;21167;-80
2023/01/30 11:39:58;;;;;;;14.33;8.98;;;;;;;2.18;54.95;99775.61;1700875;83;21172;-79
2023/01/30 11:43:14;;;;;;;15.38;8.13;;;;;;;2.10;55.66;99774.08;1742004;80;21155;-79
2023/01/30 11:46:27;;;;;;;19.65;8.65;;;;;;;2.16;55.16;99772.67;1737546;81;21253;-80
2023/01/30 11:49:35;;;;;;;19.52;8.48;;;;;;;2.18;54.78;99764.82;1726711;81;21173;-79
2023/01/30 11:52:37;;;;;;;13.43;7.37;;;;;;;1.94;55.29;99768.34;1730124;81;21196;-79
2023/01/30 11:55:31;;;;;;;15.45;7.58;;;;;;;2.01;55.08;99760.05;1716051;82;21187;-80
2023/01/30 11:58:40;;;;;;;13.68;7.90;;;;;;;2.25;54.57;99764.62;1718058;82;21232;-79
2023/01/30 12:01:47;;;;;;;15.40;9.58;;;;;;;2.29;54.05;99762.01;1745002;80;21187;-80
2023/01/30 12:04:54;;;;;;;14.23;9.28;;;;;;;2.43;53.51;99754.53;1743905;82;21286;-80
2023/01/30 12:08:24;;;;;;;13.90;8.65;;;;;;;2.13;54.26;99749.54;1749535;80;21302;-80
2023/01/30 12:11:35;;;;;;;14.78;8.68;;;;;;;2.54;53.92;99749.89;1728480;83;21825;-79
2023/01/30 12:14:53;;;;;;;16.70;9.08;;;;;;;2.70;53.15;99751.19;1727622;81;21196;-79
2023/01/30 12:18:11;;;;;;;14.07;8.00;;;;;;;2.38;53.52;99748.19;1727400;80;21107;-81
2023/01/30 12:21:29;;;;;;;15.85;9.33;;;;;;;2.29;53.74;99739.07;1738353;80;21223;-80
2023/01/30 12:24:45;;;;;;;15.25;9.40;;;;;;;2.32;53.23;99747.91;1714770;82;21218;-79
2023/01/30 12:28:19;;;;;;;14.78;9.20;;;;;;;2.28;53.55;99750.86;1716611;81;21270;-79
2023/01/30 12:31:36;;;;;;;17.07;9.38;;;;;;;2.37;53.30;99744.29;1737813;81;21182;-79
2023/01/30 12:34:45;;;;;;;16.42;9.48;;;;;;;2.35;52.96;99742.20;1721379;83;21337;-79
2023/01/30 12:38:04;;;;;;;17.32;10.53;;;;;;;2.30;53.19;99734.02;1739329;82;21189;-79
2023/01/30 12:41:33;;;;;;;17.60;10.10;;;;;;;2.43;52.33;99729.73;1722532;83;21239;-78
2023/01/30 12:44:54;;;;;;;13.83;7.40;;;;;;;2.38;52.55;99730.65;1708916;83;21184;-80
2023/01/30 12:48:27;;;;;;;15.80;9.65;;;;;;;2.46;52.54;99721.88;1712937;82;21516;-80
2023/01/30 12:51:55;;;;;;;21.52;10.00;;;;;;;2.39;52.88;99721.55;1708274;83;21209;-81
2023/01/30 12:55:33;;;;;;;17.00;10.65;;;;;;;2.22;53.47;99720.89;1731264;82;21161;-80
2023/01/30 12:58:49;;;;;;;16.97;10.18;;;;;;;2.27;53.26;99714.58;1734578;81;21192;-80
2023/01/30 13:02:09;;;;;;;23.02;11.38;;;;;;;2.27;53.16;99716.78;1737996;81;21180;-80
2023/01/30 13:05:28;;;;;;;27.37;10.72;;;;;;;2.10;53.80;99712.02;1742871;81;21845;-79
2023/01/30 13:08:40;;;;;;;24.55;12.43;;;;;;;2.28;53.76;99713.08;1733603;81;21260;-80
2023/01/30 13:12:08;;;;;;;25.12;11.05;;;;;;;2.00;54.04;99709.80;1732595;81;21825;-80
2023/01/30 13:15:19;;;;;;;26.37;12.58;;;;;;;1.92;54.31;99710.46;1725399;81;21188;-79
2023/01/30 13:18:31;;;;;;;25.35;12.60;;;;;;;2.08;54.09;99710.47;1713736;83;21846;-80
2023/01/30 13:22:01;;;;;;;30.75;14.75;;;;;;;1.99;54.28;99710.80;1691895;82;21278;-79
2023/01/30 13:25:26;;;;;;;17.98;10.63;;;;;;;2.09;54.22;99715.72;1724274;81;21841;-79
2023/01/30 13:28:35;;;;;;;18.12;10.40;;;;;;;2.02;54.41;99711.84;1718394;83;21213;-79
2023/01/30 13:31:42;;;;;;;20.82;12.70;;;;;;;2.27;54.02;99710.53;1729962;82;21149;-79
2023/01/30 13:34:49;;;;;;;24.55;14.07;;;;;;;2.17;54.01;99712.35;1734254;82;21216;-79
2023/01/30 13:37:56;;;;;;;21.02;11.22;;;;;;;1.95;54.79;99706.66;1728089;82;21211;-79
2023/01/30 13:41:04;;;;;;;18.35;10.72;;;;;;;2.00;54.60;99707.95;1730634;81;21227;-79
2023/01/30 13:44:12;;;;;;;18.65;9.98;;;;;;;2.22;54.31;99702.84;1725495;82;21269;-79
2023/01/30 13:47:39;;;;;;;22.80;11.35;;;;;;;2.16;54.35;99696.63;1712346;81;21256;-79
2023/01/30 13:51:15;;;;;;;17.25;10.55;;;;;;;2.27;54.35;99687.09;1730767;82;21201;-79
2023/01/30 13:54:58;;;;;;;17.50;9.65;;;;;;;2.57;53.91;99686.64;1728890;82;21474;-79
2023/01/30 13:58:29;;;;;;;15.10;8.60;;;;;;;2.39;54.37;99688.31;1728232;81;21228;-79
2023/01/30 14:01:34;;;;;;;;;;;;;;;2.47;54.25;99674.48;1725417;83;21225;-80
2023/01/30 14:04:55;;;;;;;17.48;9.00;;;;;;;2.50;54.11;99678.76;1724194;82;20239;-79
2023/01/30 14:08:01;;;;;;;15.75;9.55;;;;;;;2.28;54.29;99673.95;1741352;82;21229;-79
2023/01/30 14:11:08;;;;;;;17.00;9.03;;;;;;;2.25;54.79;99674.22;1726963;83;21210;-79
2023/01/30 14:14:32;;;;;;;14.75;9.13;;;;;;;2.30;54.85;99671.95;1712183;84;21238;-80
2023/01/30 14:17:37;;;;;;;15.68;9.58;;;;;;;2.20;55.23;99670.23;1708175;83;21768;-79
2023/01/30 14:20:45;;;;;;;15.32;8.90;;;;;;;1.87;56.09;99670.06;1728327;83;21241;-80
2023/01/30 14:24:11;;;;;;;17.65;9.33;;;;;;;1.70;56.85;99675.13;1715000;83;21818;-79
2023/01/30 14:27:11;;;;;;;19.20;9.35;;;;;;;1.65;57.08;99667.94;1723437;83;21255;-80
2023/01/30 14:30:49;;;;;;;17.50;10.00;;;;;;;1.97;56.56;99672.30;1754814;82;21172;-79
2023/01/30 14:33:57;;;;;;;16.32;9.23;;;;;;;1.95;56.61;99672.44;1705378;83;21205;-80
2023/01/30 14:37:04;;;;;;;18.02;9.85;;;;;;;2.03;56.26;99674.47;1754349;82;21188;-79
2023/01/30 14:40:29;;;;;;;18.07;10.82;;;;;;;1.90;56.50;99677.89;1755008;82;21735;-79
2023/01/30 14:43:52;;;;;;;17.82;9.65;;;;;;;1.62;57.35;99677.62;1723681;83;21168;-80
2023/01/30 14:47:01;;;;;;;19.12;10.82;;;;;;;1.40;58.24;99676.44;1755282;82;21223;-79
2023/01/30 14:50:08;;;;;;;17.07;10.18;;;;;;;1.33;58.55;99673.94;1753151;82;21255;-79
2023/01/30 14:53:16;;;;;;;19.92;10.90;;;;;;;1.53;58.51;99667.66;1703201;83;21276;-79